createdAt,value
2023-01-18T00:01:25.805Z,6.55
2023-01-18T00:06:30.555Z,6.18
2023-01-18T00:11:34.959Z,6.72
2023-01-18T00:16:39.726Z,7.22
2023-01-18T00:21:46.284Z,6.97
2023-01-18T00:26:50.568Z,6.82
2023-01-18T00:31:55.455Z,6.78
2023-01-18T00:37:00.912Z,6.72
2023-01-18T00:42:23.386Z,6.50
2023-01-18T00:47:27.026Z,5.68
2023-01-18T00:52:31.698Z,4.85
2023-01-18T00:57:35.970Z,4.22
2023-01-18T01:02:41.354Z,4.75
2023-01-18T01:07:50.835Z,5.03
2023-01-18T01:13:11.853Z,4.30
2023-01-18T01:18:33.895Z,4.90
2023-01-18T01:23:56.081Z,4.55
2023-01-18T01:29:00.118Z,4.22
2023-01-18T01:34:03.441Z,3.90
2023-01-18T01:39:12.069Z,4.00
2023-01-18T01:44:55.849Z,4.35
2023-01-18T01:50:01.412Z,4.18
2023-01-18T01:55:09.940Z,4.13
2023-01-18T02:00:15.156Z,4.55
2023-01-18T02:05:19.923Z,4.20
2023-01-18T02:10:25.951Z,3.92
2023-01-18T02:15:34.065Z,6.55
2023-01-18T02:21:15.646Z,3.58
2023-01-18T02:26:53.519Z,4.05
2023-01-18T02:32:09.121Z,4.40
2023-01-18T02:37:15.214Z,4.07
2023-01-18T02:42:38.595Z,3.70
2023-01-18T02:47:43.766Z,3.60
2023-01-18T02:52:51.196Z,4.00
2023-01-18T02:57:54.966Z,3.80
2023-01-18T03:03:00.734Z,3.60
2023-01-18T03:08:09.546Z,3.92
2023-01-18T03:13:16.337Z,4.07
2023-01-18T03:18:24.191Z,4.22
2023-01-18T03:23:42.531Z,4.05
2023-01-18T03:29:04.532Z,4.68
2023-01-18T03:34:14.401Z,4.60
2023-01-18T03:39:21.175Z,5.50
2023-01-18T03:44:31.062Z,4.75
2023-01-18T03:49:36.792Z,5.15
2023-01-18T03:54:43.713Z,6.20
2023-01-18T03:59:46.940Z,5.38
2023-01-18T04:04:57.694Z,5.30
2023-01-18T04:10:02.023Z,5.30
2023-01-18T04:15:08.653Z,4.70
2023-01-18T04:20:13.949Z,4.63
2023-01-18T04:25:17.640Z,4.50
2023-01-18T04:30:21.899Z,5.20
2023-01-18T04:35:27.055Z,2.87
2023-01-18T04:40:30.863Z,4.33
2023-01-18T04:45:35.129Z,4.17
2023-01-18T04:50:45.648Z,4.77
2023-01-18T04:55:49.393Z,5.87
2023-01-18T05:00:53.636Z,5.30
2023-01-18T05:05:58.623Z,5.67
2023-01-18T05:11:03.498Z,5.17
2023-01-18T05:16:09.372Z,3.90
2023-01-18T05:21:13.989Z,5.47
2023-01-18T05:26:19.353Z,2.37
2023-01-18T05:31:22.848Z,5.30
2023-01-18T05:36:27.747Z,5.40
2023-01-18T05:41:31.672Z,5.68
2023-01-18T05:46:35.216Z,5.70
2023-01-18T05:51:41.422Z,6.47
2023-01-18T05:56:46.023Z,4.93
2023-01-18T06:01:50.433Z,5.27
2023-01-18T06:06:56.712Z,5.80
2023-01-18T06:12:00.479Z,4.90
2023-01-18T06:17:05.548Z,4.07
2023-01-18T06:22:11.285Z,4.93
2023-01-18T06:27:16.253Z,5.33
2023-01-18T06:32:20.005Z,5.17
2023-01-18T06:37:25.949Z,3.40
2023-01-18T06:42:30.363Z,2.53
2023-01-18T06:47:38.430Z,3.90
2023-01-18T06:52:43.983Z,3.53
2023-01-18T06:57:48.119Z,2.57
2023-01-18T07:02:52.985Z,2.60
2023-01-18T07:07:57.667Z,2.40
2023-01-18T07:13:01.347Z,3.23
2023-01-18T07:18:08.039Z,3.33
2023-01-18T07:23:13.255Z,3.17
2023-01-18T07:28:18.561Z,2.60
2023-01-18T07:33:24.203Z,2.70
2023-01-18T07:38:31.331Z,3.47
2023-01-18T07:43:38.083Z,5.37
2023-01-18T07:48:42.731Z,5.20
2023-01-18T07:53:48.739Z,5.27
2023-01-18T07:58:52.051Z,5.93
2023-01-18T08:03:55.741Z,5.28
2023-01-18T08:09:00.611Z,5.37
2023-01-18T08:14:04.318Z,3.50
2023-01-18T08:19:09.150Z,3.57
2023-01-18T08:24:14.658Z,4.60
2023-01-18T08:29:18.248Z,3.97
2023-01-18T08:34:23.125Z,2.97
2023-01-18T08:39:29.231Z,4.87
2023-01-18T08:44:32.813Z,5.35
2023-01-18T08:49:36.480Z,4.90
2023-01-18T08:54:41.460Z,6.20
2023-01-18T08:59:45.595Z,6.50
2023-01-18T09:04:49.902Z,7.22
2023-01-18T09:09:55.150Z,7.50
2023-01-18T09:14:58.784Z,8.00
2023-01-18T09:20:02.319Z,7.78
2023-01-18T09:25:08.107Z,7.68
2023-01-18T09:30:16.575Z,7.90
2023-01-18T09:35:19.941Z,8.50
2023-01-18T09:40:26.022Z,8.85
2023-01-18T09:45:31.849Z,8.40
2023-01-18T09:50:37.575Z,8.10
2023-01-18T09:55:50.147Z,8.07
2023-01-18T10:00:54.416Z,8.50
2023-01-18T10:06:09.052Z,7.88
2023-01-18T10:11:18.074Z,8.88
2023-01-18T10:16:21.910Z,9.73
2023-01-18T10:21:30.519Z,8.80
2023-01-18T10:26:35.644Z,8.40
2023-01-18T10:31:44.249Z,8.77
2023-01-18T10:36:50.454Z,8.40
2023-01-18T10:41:56.064Z,9.38
2023-01-18T10:47:01.671Z,9.32
2023-01-18T10:52:24.455Z,9.57
2023-01-18T10:57:35.126Z,9.77
2023-01-18T11:02:39.766Z,9.57
2023-01-18T11:07:43.745Z,9.25
2023-01-18T11:12:52.469Z,9.73
2023-01-18T11:18:12.249Z,9.70
2023-01-18T11:23:21.580Z,9.70
2023-01-18T11:33:32.051Z,9.45
2023-01-18T11:38:35.965Z,10.32
2023-01-18T11:43:44.455Z,8.95
2023-01-18T11:48:51.117Z,9.00
2023-01-18T11:53:58.298Z,10.38
2023-01-18T11:59:04.398Z,9.98
2023-01-18T12:04:11.877Z,8.65
2023-01-18T12:09:25.772Z,9.57
2023-01-18T12:14:50.606Z,6.70
2023-01-18T12:20:02.263Z,11.05
2023-01-18T12:25:12.260Z,10.20
2023-01-18T12:30:24.220Z,7.65
2023-01-18T12:35:42.654Z,8.40
2023-01-18T12:40:53.349Z,7.50
2023-01-18T12:46:03.502Z,7.55
2023-01-18T12:51:10.187Z,6.85
2023-01-18T12:56:16.292Z,8.05
2023-01-18T13:01:22.618Z,6.78
2023-01-18T13:06:26.861Z,7.60
2023-01-18T13:11:32.741Z,7.88
2023-01-18T13:16:44.526Z,7.47
2023-01-18T13:22:09.350Z,6.85
2023-01-18T13:27:14.145Z,5.82
2023-01-18T13:32:25.072Z,6.90
2023-01-18T13:37:46.306Z,5.95
2023-01-18T13:42:50.322Z,5.43
2023-01-18T13:48:00.654Z,4.00
2023-01-18T13:53:26.926Z,3.08
2023-01-18T13:58:30.868Z,3.75
2023-01-18T14:03:36.892Z,3.83
2023-01-18T14:08:41.137Z,3.97
2023-01-18T14:14:24.562Z,2.40
2023-01-18T14:19:30.042Z,2.65
2023-01-18T14:24:42.729Z,1.92
2023-01-18T14:29:51.291Z,3.95
2023-01-18T14:35:00.783Z,2.70
2023-01-18T14:40:13.577Z,1.95
2023-01-18T14:45:21.809Z,2.00
2023-01-18T14:50:29.916Z,3.10
2023-01-18T14:55:36.103Z,2.53
2023-01-18T15:00:50.112Z,2.72
2023-01-18T15:06:00.889Z,2.28
2023-01-18T15:11:06.574Z,1.70
2023-01-18T15:16:12.781Z,2.42
2023-01-18T15:21:19.648Z,2.42
2023-01-18T15:26:37.149Z,2.72
2023-01-18T15:31:52.371Z,2.00
2023-01-18T15:37:00.177Z,2.35
2023-01-18T15:42:07.118Z,2.97
2023-01-18T15:47:18.029Z,2.80
2023-01-18T15:52:39.954Z,2.60
2023-01-18T15:57:57.829Z,2.70
2023-01-18T16:03:03.772Z,3.13
2023-01-18T16:08:18.103Z,3.40
2023-01-18T16:13:34.273Z,3.85
2023-01-18T16:18:39.820Z,4.45
2023-01-18T16:23:47.716Z,3.78
2023-01-18T16:28:52.432Z,3.90
2023-01-18T16:33:56.016Z,3.30
2023-01-18T16:39:03.433Z,3.50
2023-01-18T16:44:07.320Z,3.65
2023-01-18T16:49:13.516Z,3.30
2023-01-18T16:54:24.408Z,4.28
2023-01-18T16:59:30.081Z,3.92
2023-01-18T17:04:37.074Z,4.03
2023-01-18T17:09:48.697Z,3.50
2023-01-18T17:14:57.103Z,4.20
2023-01-18T17:20:01.364Z,3.92
2023-01-18T17:25:06.813Z,4.72
2023-01-18T17:30:11.691Z,4.50
2023-01-18T17:35:16.645Z,3.60
2023-01-18T17:40:30.890Z,3.85
2023-01-18T17:45:48.389Z,4.60
2023-01-18T17:50:54.945Z,4.53
2023-01-18T17:56:01.402Z,4.28
2023-01-18T18:01:10.358Z,5.32
2023-01-18T18:06:26.052Z,4.18
2023-01-18T18:11:35.252Z,5.63
2023-01-18T18:16:45.071Z,5.05
2023-01-18T18:21:50.828Z,4.93
2023-01-18T18:27:02.845Z,5.50
2023-01-18T18:32:07.390Z,5.53
2023-01-18T18:37:11.341Z,5.50
2023-01-18T18:42:16.058Z,4.65
2023-01-18T18:47:19.480Z,5.30
2023-01-18T18:52:23.105Z,4.90
2023-01-18T18:57:29.558Z,5.07
2023-01-18T19:02:34.033Z,6.05
2023-01-18T19:07:38.531Z,3.50
2023-01-18T19:12:44.479Z,4.85
2023-01-18T19:17:51.058Z,5.45
2023-01-18T19:22:56.060Z,5.57
2023-01-18T19:28:00.946Z,6.18
2023-01-18T19:33:06.320Z,5.00
2023-01-18T19:38:09.953Z,5.05
2023-01-18T19:43:14.983Z,5.75
2023-01-18T19:48:18.407Z,7.13
2023-01-18T19:53:22.616Z,5.95
2023-01-18T19:58:30.072Z,5.70
2023-01-18T20:03:33.862Z,4.15
2023-01-18T20:08:37.879Z,5.72
2023-01-18T20:13:44.269Z,5.32
2023-01-18T20:18:49.337Z,5.60
2023-01-18T20:23:55.976Z,6.07
2023-01-18T20:29:02.862Z,5.93
2023-01-18T20:34:07.265Z,5.40
2023-01-18T20:39:12.270Z,5.82
2023-01-18T20:44:17.473Z,6.70
2023-01-18T20:49:27.319Z,7.03
2023-01-18T20:54:37.211Z,6.67
2023-01-18T20:59:43.674Z,5.93
2023-01-18T21:04:47.449Z,7.18
2023-01-18T21:09:54.013Z,7.05
2023-01-18T21:15:00.219Z,7.15
2023-01-18T21:20:03.705Z,8.18
2023-01-18T21:25:08.703Z,6.65
2023-01-18T21:30:16.705Z,8.00
2023-01-18T21:35:20.924Z,6.72
2023-01-18T21:40:24.605Z,7.72
2023-01-18T21:45:49.380Z,7.35
2023-01-18T21:51:10.270Z,7.38
2023-01-18T21:56:13.908Z,7.63
2023-01-18T22:01:19.597Z,7.90
2023-01-18T22:06:22.966Z,8.18
2023-01-18T22:11:26.584Z,8.95
2023-01-18T22:16:31.645Z,8.90
2023-01-18T22:21:35.343Z,8.63
2023-01-18T22:26:39.109Z,8.07
2023-01-18T22:31:44.435Z,8.57
2023-01-18T22:36:48.053Z,9.68
2023-01-18T22:41:53.731Z,9.55
2023-01-18T22:46:59.592Z,8.80
2023-01-18T22:52:04.901Z,9.60
2023-01-18T22:57:09.975Z,8.27
2023-01-18T23:02:15.379Z,7.57
2023-01-18T23:07:19.332Z,9.35
2023-01-18T23:12:22.562Z,8.98
2023-01-18T23:17:43.429Z,9.38
2023-01-18T23:22:47.642Z,8.13
2023-01-18T23:27:52.234Z,9.93
2023-01-18T23:32:57.705Z,9.57
2023-01-18T23:38:03.162Z,9.80
2023-01-18T23:43:23.566Z,9.82
2023-01-18T23:48:45.779Z,9.98
2023-01-18T23:54:06.989Z,10.38
2023-01-18T23:59:10.868Z,10.85
